Terminal Aerodrome Forecast
Issued by NWS

Current Version | Previous Version | Text Only | Print | Product List | Glossary On
Versions: 1 2 3 4 5 6 7 8 9 10 11 12 13 14 15 16
623
FTUS42 TJSJ 282340
TAFJBQ
TAF
TJBQ 282340Z 2900/2924 VRB05KT P6SM FEW060
     FM291300 08010KT P6SM FEW030 SCT060
     FM292300 11008KT P6SM FEW060
      AMD NOT SKED 2902/2911=

USA.gov is the U.S. government's official web portal to all federal, state and local government web resources and services.